Time;durP1;ratioP1;P1;durP2;ratioP2;P2;SDS_P1;SDS_P2;PMS_P1;PMS_P2;Temp;Humidity;BMP_temperature;BMP_pressure;BME280_temperature;BME280_humidity;BME280_pressure;Samples;Min_cycle;Max_cycle;Signal;HPM_P1;HPM_P2
2022/01/02 00:00:19;;;;;;;8.20;6.28;;;;;;;10.50;92.94;101669.13;1033916;28;20308;-77
2022/01/02 00:01:00;;;;;;;8.63;5.43;;;;;;;10.54;93.02;101670.38;1031175;28;20292;-77
2022/01/02 00:01:35;;;;;;;10.52;5.85;;;;;;;10.49;92.82;101662.13;1030427;28;20289;-78
2022/01/02 00:02:09;;;;;;;7.95;5.22;;;;;;;10.47;92.90;101662.34;1029844;28;20522;-78
2022/01/02 00:02:42;;;;;;;6.40;5.35;;;;;;;10.50;92.66;101655.78;1029870;28;20416;-78
2022/01/02 00:03:19;;;;;;;9.65;6.05;;;;;;;10.52;92.72;101653.75;1029381;28;20694;-78
2022/01/02 00:03:52;;;;;;;10.77;5.60;;;;;;;10.51;92.78;101655.59;1032653;28;20364;-78
2022/01/02 00:04:25;;;;;;;8.30;5.47;;;;;;;10.50;92.89;101647.81;1031463;28;20490;-78
2022/01/02 00:05:04;;;;;;;6.10;5.50;;;;;;;10.48;93.04;101650.66;1028676;28;20293;-78
2022/01/02 00:05:38;;;;;;;8.65;6.32;;;;;;;10.54;92.74;101649.06;1029677;28;20292;-78
2022/01/02 00:06:11;;;;;;;6.85;6.00;;;;;;;10.50;92.83;101658.47;1033268;28;20633;-78
2022/01/02 00:06:53;;;;;;;9.10;5.85;;;;;;;10.51;93.29;101644.94;1032164;28;20373;-78
2022/01/02 00:07:25;;;;;;;8.88;6.15;;;;;;;10.51;93.21;101650.28;1029150;28;20285;-78
2022/01/02 00:08:04;;;;;;;6.85;6.05;;;;;;;10.47;93.23;101638.38;1032705;28;20281;-78
2022/01/02 00:08:41;;;;;;;9.18;5.50;;;;;;;10.49;93.33;101630.19;1037965;28;20283;-78
2022/01/02 00:09:20;;;;;;;8.23;5.82;;;;;;;10.44;93.33;101629.94;1034933;28;20827;-78
2022/01/02 00:09:52;;;;;;;10.65;5.65;;;;;;;10.44;93.90;101632.59;1034096;28;20280;-78
2022/01/02 00:10:24;;;;;;;10.13;5.93;;;;;;;10.41;93.75;101638.34;1031118;28;20297;-78
2022/01/02 00:10:57;;;;;;;11.52;6.45;;;;;;;10.37;94.10;101639.72;1031196;28;20661;-78
2022/01/02 00:11:29;;;;;;;9.77;6.22;;;;;;;10.39;94.46;101641.16;1035395;28;20287;-78
2022/01/02 00:12:18;;;;;;;10.23;6.13;;;;;;;10.33;94.70;101641.13;1035192;28;20693;-78
2022/01/02 00:12:52;;;;;;;7.57;5.50;;;;;;;10.32;94.99;101645.63;1027280;28;20278;-78
2022/01/02 00:13:28;;;;;;;9.02;5.90;;;;;;;10.30;94.72;101657.50;1025685;28;20289;-78
2022/01/02 00:14:07;;;;;;;8.40;6.53;;;;;;;10.29;94.91;101650.53;1026275;28;20286;-78
2022/01/02 00:14:43;;;;;;;10.93;6.28;;;;;;;10.27;95.57;101657.88;1028717;28;20278;-79
2022/01/02 00:15:15;;;;;;;8.05;5.95;;;;;;;10.28;95.60;101659.53;1030532;28;20298;-78
2022/01/02 00:15:47;;;;;;;11.02;6.55;;;;;;;10.31;95.30;101648.50;1031916;28;20296;-79
2022/01/02 00:16:18;;;;;;;8.23;6.28;;;;;;;10.28;95.26;101652.38;1036649;28;20648;-78
2022/01/02 00:16:53;;;;;;;8.32;5.28;;;;;;;10.27;95.28;101649.91;1030876;28;20815;-78
2022/01/02 00:17:24;;;;;;;9.55;6.47;;;;;;;10.26;95.74;101651.75;1031560;28;20286;-78
2022/01/02 00:17:59;;;;;;;11.23;6.50;;;;;;;10.27;95.67;101637.41;1035334;28;20782;-78
2022/01/02 00:18:33;;;;;;;8.98;6.40;;;;;;;10.24;95.72;101642.31;1030480;28;20281;-78
2022/01/02 00:19:19;;;;;;;7.47;6.68;;;;;;;10.24;95.70;101645.78;1031892;28;20346;-78
2022/01/02 00:19:54;;;;;;;9.73;6.88;;;;;;;10.25;95.99;101649.28;1033331;28;20281;-78
2022/01/02 00:20:32;;;;;;;7.65;5.88;;;;;;;10.27;96.04;101652.56;1034767;28;20276;-78
2022/01/02 00:21:10;;;;;;;8.02;6.22;;;;;;;10.23;95.82;101651.31;1032471;28;20293;-78
2022/01/02 00:21:45;;;;;;;7.45;5.82;;;;;;;10.21;96.17;101660.31;1035135;28;20739;-78
2022/01/02 00:22:18;;;;;;;10.10;6.10;;;;;;;10.20;95.99;101658.66;1033456;28;20277;-77
2022/01/02 00:22:51;;;;;;;9.43;6.63;;;;;;;10.18;96.07;101659.84;1033270;28;20288;-77
2022/01/02 00:23:31;;;;;;;11.52;6.45;;;;;;;10.21;96.55;101649.66;1034795;28;20354;-77
2022/01/02 00:24:06;;;;;;;9.05;6.80;;;;;;;10.21;96.01;101654.16;1033082;28;21716;-77
2022/01/02 00:24:38;;;;;;;10.45;6.43;;;;;;;10.17;96.54;101653.69;1037734;28;20660;-77
2022/01/02 00:25:18;;;;;;;11.15;6.53;;;;;;;10.16;96.28;101635.25;1034908;28;20640;-77
2022/01/02 00:25:54;;;;;;;8.10;6.50;;;;;;;10.15;96.71;101634.44;1031685;28;20295;-77
2022/01/02 00:26:36;;;;;;;9.00;6.88;;;;;;;10.16;96.20;101635.25;1030676;28;20053;-77
2022/01/02 00:27:09;;;;;;;10.40;6.10;;;;;;;10.13;96.67;101636.44;1032854;28;20284;-77
2022/01/02 00:27:41;;;;;;;10.30;6.75;;;;;;;10.15;96.46;101630.94;1034537;28;20292;-78
2022/01/02 00:28:13;;;;;;;8.90;6.85;;;;;;;10.14;96.67;101634.63;1031317;28;20304;-78
2022/01/02 00:28:48;;;;;;;9.68;7.07;;;;;;;10.14;97.06;101632.78;1026844;28;20281;-78
2022/01/02 00:29:19;;;;;;;8.18;6.32;;;;;;;10.14;96.83;101626.66;1025769;28;20279;-78
2022/01/02 00:29:56;;;;;;;11.82;6.60;;;;;;;10.10;97.12;101630.69;1032416;28;20393;-76
2022/01/02 00:30:27;;;;;;;8.27;7.15;;;;;;;10.09;97.21;101640.50;1035939;28;20288;-77
2022/01/02 00:30:59;;;;;;;14.25;6.95;;;;;;;10.09;96.99;101643.16;1039476;28;20279;-77
2022/01/02 00:31:32;;;;;;;9.13;7.28;;;;;;;10.07;97.49;101642.53;1032331;28;20284;-77
2022/01/02 00:32:06;;;;;;;13.18;7.18;;;;;;;10.08;97.32;101638.03;1034777;28;20343;-77
2022/01/02 00:32:38;;;;;;;10.63;7.55;;;;;;;10.09;96.88;101634.38;1030734;28;20286;-78
2022/01/02 00:33:09;;;;;;;8.38;6.53;;;;;;;10.10;96.98;101634.16;1027938;28;20281;-78
2022/01/02 00:33:41;;;;;;;8.57;6.60;;;;;;;10.08;97.41;101641.53;1026972;28;20281;-78
2022/01/02 00:34:13;;;;;;;12.55;6.95;;;;;;;10.09;96.95;101651.16;1027451;28;20278;-78
2022/01/02 00:34:50;;;;;;;12.52;7.22;;;;;;;10.11;97.12;101653.63;1027732;28;20274;-78
2022/01/02 00:35:22;;;;;;;10.73;6.63;;;;;;;10.10;96.95;101658.13;1028356;28;20274;-77
2022/01/02 00:35:54;;;;;;;7.93;6.95;;;;;;;10.05;97.18;101652.56;1030997;28;20285;-78
2022/01/02 00:36:26;;;;;;;12.15;7.05;;;;;;;10.04;96.75;101648.25;1032202;28;20649;-78
2022/01/02 00:36:57;;;;;;;10.60;7.75;;;;;;;10.04;97.29;101647.44;1035886;28;20806;-78
2022/01/02 00:37:29;;;;;;;10.18;6.85;;;;;;;10.03;97.18;101651.94;1034744;28;20281;-78
2022/01/02 00:38:00;;;;;;;11.57;7.40;;;;;;;10.03;97.18;101656.44;1034789;28;20316;-78
2022/01/02 00:38:32;;;;;;;9.50;7.30;;;;;;;10.03;97.47;101645.78;1035687;28;20316;-78
2022/01/02 00:39:06;;;;;;;8.75;6.82;;;;;;;10.09;97.50;101645.00;1038783;28;20295;-78
2022/01/02 00:39:38;;;;;;;8.65;7.00;;;;;;;10.09;97.11;101635.19;1039286;28;20318;-78
2022/01/02 00:40:10;;;;;;;9.38;7.68;;;;;;;10.08;96.87;101644.19;1039342;28;20286;-77
2022/01/02 00:40:44;;;;;;;11.93;8.05;;;;;;;10.07;96.81;101639.06;1038817;28;20284;-76
2022/01/02 00:41:22;;;;;;;11.00;7.53;;;;;;;10.11;97.06;101633.16;1034897;28;20281;-76
2022/01/02 00:41:56;;;;;;;9.05;7.05;;;;;;;10.13;96.63;101641.75;1034460;28;20287;-76
2022/01/02 00:42:30;;;;;;;14.18;6.95;;;;;;;10.15;96.75;101638.94;1034708;28;20304;-77
2022/01/02 00:43:04;;;;;;;10.45;7.30;;;;;;;10.13;97.04;101649.75;1036369;28;22093;-77
2022/01/02 00:43:44;;;;;;;10.68;6.80;;;;;;;10.09;96.93;101645.00;1033754;28;20280;-76
2022/01/02 00:44:34;;;;;;;8.82;7.07;;;;;;;10.05;97.12;101649.91;1038900;28;20276;-76
2022/01/02 00:45:11;;;;;;;12.30;6.70;;;;;;;10.04;96.84;101645.59;1038501;28;20373;-77
2022/01/02 00:45:45;;;;;;;9.05;6.32;;;;;;;10.06;96.97;101642.75;1038997;28;20636;-77
2022/01/02 00:46:19;;;;;;;7.82;6.00;;;;;;;10.06;96.66;101648.88;1038886;28;20805;-76
2022/01/02 00:47:16;;;;;;;8.43;6.57;;;;;;;10.06;96.87;101646.22;1035028;28;20355;-76
2022/01/02 00:48:15;;;;;;;12.38;6.28;;;;;;;10.10;96.82;101647.47;1034867;28;20359;-77
2022/01/02 00:48:47;;;;;;;9.00;6.03;;;;;;;10.09;96.35;101643.16;1038894;28;21651;-77
2022/01/02 00:49:25;;;;;;;6.93;5.90;;;;;;;10.08;96.57;101644.19;1038982;28;20639;-77
2022/01/02 00:50:04;;;;;;;9.52;6.28;;;;;;;10.07;96.77;101641.72;1035056;28;20363;-76
2022/01/02 00:50:42;;;;;;;10.23;6.05;;;;;;;10.06;96.81;101648.88;1034939;28;20272;-77
2022/01/02 00:51:17;;;;;;;7.68;6.70;;;;;;;10.10;96.61;101644.81;1034952;28;20287;-78
2022/01/02 00:51:55;;;;;;;8.23;6.53;;;;;;;10.09;96.66;101645.84;1030810;28;20784;-78
2022/01/02 00:52:27;;;;;;;8.13;6.13;;;;;;;10.09;96.55;101645.00;1033893;28;20348;-78
2022/01/02 00:53:02;;;;;;;9.52;6.45;;;;;;;10.09;96.63;101643.16;1028780;28;20631;-78
2022/01/02 00:53:35;;;;;;;8.82;5.50;;;;;;;10.07;96.59;101642.53;1028643;28;20286;-78
2022/01/02 00:54:07;;;;;;;10.95;6.85;;;;;;;10.08;96.63;101644.19;1031050;28;20341;-78
2022/01/02 00:54:43;;;;;;;18.15;7.40;;;;;;;10.04;96.60;101642.94;1028412;28;20310;-78
2022/01/02 00:55:23;;;;;;;7.80;6.28;;;;;;;10.05;96.58;101641.91;1032264;28;20277;-78
2022/01/02 00:55:59;;;;;;;10.20;5.85;;;;;;;10.06;96.70;101643.56;1030882;28;20285;-76
2022/01/02 00:56:31;;;;;;;9.27;6.40;;;;;;;10.12;96.36;101639.31;1033377;28;20296;-77
2022/01/02 00:57:07;;;;;;;9.15;6.05;;;;;;;10.11;96.17;101651.78;1031253;28;20315;-77
2022/01/02 00:57:41;;;;;;;9.48;6.50;;;;;;;10.09;96.00;101651.16;1033133;28;20273;-77
2022/01/02 00:58:17;;;;;;;6.82;6.03;;;;;;;10.10;96.06;101644.81;1027548;28;20366;-77
2022/01/02 00:58:54;;;;;;;8.70;6.35;;;;;;;10.11;95.82;101654.44;1029687;28;20277;-77
2022/01/02 00:59:28;;;;;;;9.60;7.13;;;;;;;10.12;96.08;101650.78;1029786;28;20274;-76
2022/01/02 01:00:07;;;;;;;7.30;5.47;;;;;;;10.12;96.26;101648.09;1029248;28;20302;-76
2022/01/02 01:00:45;;;;;;;15.23;6.68;;;;;;;10.13;95.69;101651.59;1034213;28;20344;-76
2022/01/02 01:01:24;;;;;;;11.50;6.05;;;;;;;10.18;95.48;101642.03;1034714;28;20288;-78
2022/01/02 01:02:02;;;;;;;6.93;6.25;;;;;;;10.17;95.57;101644.88;1032655;28;20277;-78
2022/01/02 01:02:39;;;;;;;9.35;6.28;;;;;;;10.16;95.63;101644.06;1029439;28;20274;-78
2022/01/02 01:03:12;;;;;;;7.85;5.88;;;;;;;10.13;95.16;101649.75;1034059;28;20780;-78
2022/01/02 01:03:45;;;;;;;9.93;6.00;;;;;;;10.14;95.30;101651.44;1034042;28;20281;-78
2022/01/02 01:04:19;;;;;;;7.93;6.28;;;;;;;10.14;95.49;101648.78;1033810;28;20645;-78
2022/01/02 01:04:52;;;;;;;9.80;6.43;;;;;;;10.14;95.67;101638.13;1035926;28;20277;-77
2022/01/02 01:05:31;;;;;;;9.55;6.75;;;;;;;10.14;95.41;101643.44;1032865;28;20308;-78
2022/01/02 01:06:03;;;;;;;11.93;6.22;;;;;;;10.15;95.32;101652.25;1033803;28;20288;-78
2022/01/02 01:06:36;;;;;;;10.32;6.05;;;;;;;10.18;95.30;101660.66;1035791;28;20285;-78
2022/01/02 01:07:08;;;;;;;11.98;6.65;;;;;;;10.16;95.47;101652.06;1035704;28;20291;-78
2022/01/02 01:07:40;;;;;;;7.13;6.20;;;;;;;10.19;95.16;101649.00;1036672;28;20273;-78
2022/01/02 01:08:11;;;;;;;10.18;6.53;;;;;;;10.16;95.42;101659.22;1035660;28;20277;-78
2022/01/02 01:08:43;;;;;;;8.20;5.85;;;;;;;10.16;95.29;101656.56;1036110;28;20288;-78
2022/01/02 01:09:16;;;;;;;8.50;6.95;;;;;;;10.18;95.33;101654.53;1035847;28;20285;-77
2022/01/02 01:09:48;;;;;;;8.23;6.05;;;;;;;10.17;95.02;101652.88;1035213;28;20273;-77
2022/01/02 01:10:21;;;;;;;9.07;6.78;;;;;;;10.21;94.93;101632.88;1032128;28;20280;-76
2022/01/02 01:10:53;;;;;;;6.07;5.47;;;;;;;10.18;94.53;101639.38;1031638;28;20288;-76
2022/01/02 01:11:26;;;;;;;9.45;7.07;;;;;;;10.17;94.94;101632.41;1030068;28;20289;-77
2022/01/02 01:11:59;;;;;;;10.27;7.20;;;;;;;10.17;94.77;101632.41;1032053;28;20300;-77
2022/01/02 01:12:31;;;;;;;8.88;6.63;;;;;;;10.17;94.98;101636.91;1027776;28;20661;-77
2022/01/02 01:13:04;;;;;;;13.95;5.68;;;;;;;10.18;95.13;101623.41;1029989;28;20301;-76
2022/01/02 01:13:36;;;;;;;10.20;7.30;;;;;;;10.21;94.69;101633.69;1028065;28;20313;-77
2022/01/02 01:14:08;;;;;;;10.18;6.72;;;;;;;10.18;94.74;101628.72;1028971;28;20286;-76
2022/01/02 01:14:40;;;;;;;8.18;6.45;;;;;;;10.18;94.75;101618.06;1035403;28;20293;-77
2022/01/02 01:15:12;;;;;;;7.43;5.43;;;;;;;10.16;94.78;101620.09;1035998;28;20272;-77
2022/01/02 01:15:43;;;;;;;9.98;6.68;;;;;;;10.14;95.11;101626.66;1035799;28;20277;-77
2022/01/02 01:16:17;;;;;;;11.10;7.03;;;;;;;10.15;95.54;101618.47;1039852;28;20291;-77
2022/01/02 01:16:49;;;;;;;11.30;7.03;;;;;;;10.16;95.25;101619.28;1037404;28;20278;-77
2022/01/02 01:17:21;;;;;;;11.88;6.35;;;;;;;10.13;95.61;101622.31;1034962;28;20277;-77
2022/01/02 01:17:54;;;;;;;9.93;5.88;;;;;;;10.11;95.17;101622.50;1031300;28;20648;-77
2022/01/02 01:18:26;;;;;;;8.63;7.18;;;;;;;10.11;95.87;101624.34;1027739;28;20278;-77
2022/01/02 01:18:58;;;;;;;12.38;6.60;;;;;;;10.09;95.83;101619.22;1028003;28;20298;-77
2022/01/02 01:19:30;;;;;;;12.35;7.60;;;;;;;10.06;95.52;101618.78;1032869;28;20301;-77
2022/01/02 01:20:04;;;;;;;10.00;7.07;;;;;;;10.08;96.22;101625.56;1039946;28;20288;-77
2022/01/02 01:20:41;;;;;;;10.95;7.20;;;;;;;10.06;96.29;101624.94;1039713;28;20643;-76
2022/01/02 01:21:12;;;;;;;8.55;6.30;;;;;;;10.03;96.65;101635.97;1035508;28;20268;-76
2022/01/02 01:21:44;;;;;;;7.88;7.03;;;;;;;9.99;96.71;101628.56;1035051;28;20841;-77
2022/01/02 01:22:16;;;;;;;12.45;7.70;;;;;;;9.99;96.85;101636.56;1033001;28;20649;-77
2022/01/02 01:22:48;;;;;;;8.05;6.47;;;;;;;10.01;96.55;101638.00;1031853;28;20285;-77
2022/01/02 01:23:20;;;;;;;6.47;5.60;;;;;;;10.05;97.08;101639.25;1027130;28;20288;-77
2022/01/02 01:23:52;;;;;;;9.52;6.78;;;;;;;10.00;96.68;101631.03;1027772;28;20282;-76
2022/01/02 01:24:24;;;;;;;13.07;7.70;;;;;;;10.03;96.88;101622.66;1023885;28;20294;-77
2022/01/02 01:24:57;;;;;;;16.90;7.88;;;;;;;10.03;96.94;101632.47;1024551;28;20285;-77
2022/01/02 01:25:28;;;;;;;11.25;7.80;;;;;;;10.01;96.79;101629.19;1032407;28;20865;-77
2022/01/02 01:26:05;;;;;;;11.95;6.50;;;;;;;9.99;97.13;101626.72;1035466;28;20293;-76
2022/01/02 01:26:39;;;;;;;8.00;7.05;;;;;;;9.96;97.14;101635.09;1039320;28;20290;-76
2022/01/02 01:27:11;;;;;;;8.48;6.47;;;;;;;9.96;97.42;101629.78;1039366;28;20290;-77
2022/01/02 01:27:44;;;;;;;9.20;6.63;;;;;;;9.96;96.93;101632.44;1039343;28;20390;-76
2022/01/02 01:28:17;;;;;;;10.63;7.10;;;;;;;9.96;96.96;101635.09;1039578;28;20291;-77
2022/01/02 01:28:48;;;;;;;9.68;6.60;;;;;;;9.94;97.65;101631.81;1039405;28;20788;-77
2022/01/02 01:29:20;;;;;;;12.25;7.18;;;;;;;9.94;97.28;101631.81;1039538;28;20296;-76
2022/01/02 01:29:51;;;;;;;13.32;7.00;;;;;;;9.94;97.26;101631.81;1040194;28;20276;-76
2022/01/02 01:30:25;;;;;;;11.90;7.20;;;;;;;9.93;97.37;101630.16;1039547;28;20287;-77
2022/01/02 01:30:56;;;;;;;12.95;7.20;;;;;;;9.90;97.25;101623.38;1035285;28;20280;-77
2022/01/02 01:31:28;;;;;;;10.00;6.18;;;;;;;9.90;97.61;101625.22;1035826;28;20284;-76
2022/01/02 01:32:01;;;;;;;11.00;7.13;;;;;;;9.89;97.73;101618.25;1031696;28;20300;-77
2022/01/02 01:32:33;;;;;;;9.68;6.63;;;;;;;9.89;98.18;101624.41;1036305;28;20664;-77
2022/01/02 01:33:05;;;;;;;11.65;7.10;;;;;;;9.88;97.84;101616.63;1039578;28;20284;-77
2022/01/02 01:33:36;;;;;;;15.40;7.68;;;;;;;9.89;98.07;101623.59;1039885;28;20287;-77
2022/01/02 01:34:08;;;;;;;10.35;6.93;;;;;;;9.87;98.02;101614.97;1039487;28;20277;-77
2022/01/02 01:34:40;;;;;;;7.95;7.15;;;;;;;9.89;98.49;101613.75;1039511;28;20276;-78
2022/01/02 01:35:12;;;;;;;13.07;6.70;;;;;;;9.88;98.43;101617.44;1039914;28;20667;-77
2022/01/02 01:35:43;;;;;;;9.25;7.45;;;;;;;9.87;98.49;101614.97;1039280;28;20292;-77
2022/01/02 01:36:16;;;;;;;15.35;6.65;;;;;;;9.89;98.74;101607.63;1040096;28;20617;-77
2022/01/02 01:36:47;;;;;;;10.88;7.43;;;;;;;9.86;98.83;101615.97;1039928;28;20280;-77
2022/01/02 01:37:19;;;;;;;9.85;7.20;;;;;;;9.87;98.84;101628.28;1039745;28;20284;-77
2022/01/02 01:37:51;;;;;;;10.88;7.30;;;;;;;9.88;98.63;101624.59;1039425;28;20292;-77
2022/01/02 01:38:24;;;;;;;10.20;6.25;;;;;;;9.84;99.09;101613.50;1039734;28;20687;-76
2022/01/02 01:38:55;;;;;;;9.82;6.57;;;;;;;9.86;99.05;101611.50;1039357;28;20284;-77
2022/01/02 01:39:27;;;;;;;13.98;6.82;;;;;;;9.83;98.68;101609.19;1039389;28;20287;-77
2022/01/02 01:40:00;;;;;;;13.27;7.43;;;;;;;9.80;98.92;101614.06;1035773;28;20354;-77
2022/01/02 01:40:37;;;;;;;14.60;7.35;;;;;;;9.80;99.03;101608.75;1035497;28;20613;-76
2022/01/02 01:41:20;;;;;;;8.25;6.18;;;;;;;9.75;99.10;101614.66;1034902;28;20285;-76
2022/01/02 01:41:54;;;;;;;10.65;6.82;;;;;;;9.80;99.84;101611.41;1037237;28;20281;-76
2022/01/02 01:42:35;;;;;;;10.25;7.88;;;;;;;9.76;100.00;101613.63;1035223;28;20285;-76
2022/01/02 01:43:09;;;;;;;10.13;6.35;;;;;;;9.76;100.00;101623.47;1029548;28;20702;-76
2022/01/02 01:43:53;;;;;;;10.07;7.47;;;;;;;9.75;99.90;101619.16;1033809;28;20653;-76
2022/01/02 01:44:39;;;;;;;10.23;6.28;;;;;;;9.73;100.00;101618.53;1035658;28;20273;-77
2022/01/02 01:45:54;;;;;;;8.93;6.72;;;;;;;9.74;99.77;101609.53;1035194;28;20668;-77
2022/01/02 01:46:25;;;;;;;8.27;6.28;;;;;;;9.74;100.00;101609.53;1035393;28;20291;-76
2022/01/02 01:46:57;;;;;;;11.10;7.07;;;;;;;9.72;100.00;101617.69;1039528;28;20280;-76
2022/01/02 01:47:29;;;;;;;8.38;6.38;;;;;;;9.71;100.00;101607.25;1039554;28;20335;-76
2022/01/02 01:48:03;;;;;;;9.48;6.65;;;;;;;9.69;100.00;101611.94;1039643;28;20292;-76
2022/01/02 01:48:38;;;;;;;12.50;6.75;;;;;;;9.67;100.00;101609.47;1039916;28;20322;-76
2022/01/02 01:49:14;;;;;;;10.98;6.05;;;;;;;9.69;100.00;101603.97;1039452;28;20338;-76
2022/01/02 01:49:45;;;;;;;10.60;6.72;;;;;;;9.67;100.00;101608.66;1039493;28;20283;-76
2022/01/02 01:50:19;;;;;;;12.57;6.93;;;;;;;9.66;100.00;101607.00;1036729;28;20283;-76
2022/01/02 01:50:50;;;;;;;11.05;7.00;;;;;;;9.64;100.00;101609.03;1039503;28;20280;-76
2022/01/02 01:51:23;;;;;;;9.20;7.28;;;;;;;9.63;100.00;101604.72;1039942;28;20276;-76
2022/01/02 01:51:54;;;;;;;9.98;6.30;;;;;;;9.64;100.00;101603.72;1035098;28;20313;-76
2022/01/02 01:52:26;;;;;;;13.63;7.43;;;;;;;9.64;100.00;101609.03;1031724;28;20703;-76
2022/01/02 01:52:57;;;;;;;13.45;7.95;;;;;;;9.64;100.00;101598.41;1035517;28;20300;-76
2022/01/02 01:53:34;;;;;;;11.73;7.20;;;;;;;9.59;100.00;101605.13;1032625;28;20277;-76
2022/01/02 01:54:05;;;;;;;8.10;6.70;;;;;;;9.64;100.00;101595.75;1032267;28;20372;-76
2022/01/02 01:54:37;;;;;;;15.98;7.75;;;;;;;9.60;100.00;101593.47;1035576;28;20324;-76
2022/01/02 01:55:09;;;;;;;12.18;6.72;;;;;;;9.59;100.00;101602.47;1032383;28;20304;-76
2022/01/02 01:55:41;;;;;;;10.80;6.72;;;;;;;9.66;100.00;101597.19;1028518;28;20288;-76
2022/01/02 01:56:12;;;;;;;11.35;6.22;;;;;;;9.62;100.00;101605.75;1029991;28;20278;-75
2022/01/02 01:56:45;;;;;;;11.82;8.10;;;;;;;9.62;100.00;101595.09;1029484;28;20281;-75
2022/01/02 01:57:17;;;;;;;10.13;8.13;;;;;;;9.67;100.00;101598.00;1031559;28;20312;-75
2022/01/02 01:57:50;;;;;;;9.32;6.97;;;;;;;9.57;100.00;101588.50;1031314;28;20288;-75
2022/01/02 01:58:22;;;;;;;12.40;7.88;;;;;;;9.59;100.00;101593.66;1035488;28;20288;-75
2022/01/02 01:58:53;;;;;;;9.77;6.18;;;;;;;9.58;100.00;101584.81;1031188;28;20326;-75
2022/01/02 01:59:25;;;;;;;10.68;7.97;;;;;;;9.57;100.00;101593.00;1031660;28;20306;-76
2022/01/02 01:59:57;;;;;;;15.32;8.27;;;;;;;9.57;100.00;101587.69;1032058;28;20281;-75
2022/01/02 02:00:29;;;;;;;8.25;6.90;;;;;;;9.58;100.00;101594.63;1031818;28;20311;-75
2022/01/02 02:01:01;;;;;;;13.20;7.80;;;;;;;9.59;100.00;101586.50;1035143;28;20298;-76
2022/01/02 02:01:33;;;;;;;9.30;7.45;;;;;;;9.57;100.00;101599.13;1035736;28;20284;-75
2022/01/02 02:02:09;;;;;;;12.48;8.23;;;;;;;9.62;100.00;101595.09;1028385;28;20282;-75
2022/01/02 02:02:41;;;;;;;9.48;7.22;;;;;;;9.60;100.00;101592.63;1028303;28;20792;-75
2022/01/02 02:03:13;;;;;;;12.63;7.88;;;;;;;9.58;100.00;101592.81;1027108;28;20856;-75
2022/01/02 02:03:45;;;;;;;12.35;7.85;;;;;;;9.59;100.00;101591.81;1025992;28;20279;-76
2022/01/02 02:04:17;;;;;;;10.43;7.60;;;;;;;9.57;100.00;101585.84;1031804;28;20288;-75
2022/01/02 02:04:48;;;;;;;14.55;7.72;;;;;;;9.62;100.00;101589.78;1030777;28;20293;-75
2022/01/02 02:05:20;;;;;;;15.05;8.20;;;;;;;9.58;100.00;101586.66;1032013;28;20273;-76
2022/01/02 02:05:51;;;;;;;12.82;7.88;;;;;;;9.55;100.00;101590.53;1031661;28;20282;-75
2022/01/02 02:06:23;;;;;;;14.40;8.55;;;;;;;9.57;100.00;101585.84;1031640;28;20285;-75
2022/01/02 02:06:56;;;;;;;13.32;8.05;;;;;;;9.57;100.00;101591.16;1031528;28;20281;-76
2022/01/02 02:07:37;;;;;;;12.95;8.30;;;;;;;9.55;100.00;101585.22;1031766;28;20304;-76
2022/01/02 02:08:10;;;;;;;12.40;7.60;;;;;;;9.55;100.00;101582.56;1030924;28;20690;-76
2022/01/02 02:08:41;;;;;;;13.63;8.50;;;;;;;9.56;100.00;101586.03;1031041;28;20052;-76
2022/01/02 02:09:13;;;;;;;11.07;8.10;;;;;;;9.54;100.00;101583.56;1033429;28;20300;-76
2022/01/02 02:10:27;;;;;;;14.95;8.05;;;;;;;9.62;100.00;101574.66;1027881;28;20812;-76
2022/01/02 02:10:58;;;;;;;12.73;8.63;;;;;;;9.61;100.00;101583.66;1034658;28;20289;-76
2022/01/02 02:11:30;;;;;;;14.80;7.68;;;;;;;9.57;100.00;101583.19;1036962;28;20342;-76
2022/01/02 02:12:02;;;;;;;14.07;8.73;;;;;;;9.57;100.00;101582.34;1035422;28;20290;-76
2022/01/02 02:12:33;;;;;;;14.52;8.13;;;;;;;9.56;100.00;101589.50;1032031;28;20281;-76
2022/01/02 02:13:05;;;;;;;13.52;8.55;;;;;;;9.55;100.00;101584.38;1035178;28;20684;-76
2022/01/02 02:13:38;;;;;;;13.20;8.15;;;;;;;9.58;100.00;101579.50;1035541;28;20285;-76
2022/01/02 02:14:09;;;;;;;15.38;8.50;;;;;;;9.62;100.00;101574.66;1035794;28;20285;-76
2022/01/02 02:14:41;;;;;;;11.98;8.32;;;;;;;9.62;100.00;101573.84;1039369;28;20283;-76
2022/01/02 02:15:15;;;;;;;14.32;7.93;;;;;;;9.61;100.00;101578.34;1035407;28;20277;-76
2022/01/02 02:15:49;;;;;;;19.85;8.77;;;;;;;9.65;100.00;101573.44;1031727;28;20281;-76
2022/01/02 02:16:21;;;;;;;11.00;7.97;;;;;;;9.60;100.00;101572.19;1035086;28;20359;-76
2022/01/02 02:16:53;;;;;;;11.98;7.97;;;;;;;9.57;100.00;101572.53;1036452;28;20289;-76
2022/01/02 02:17:25;;;;;;;13.50;7.68;;;;;;;9.60;100.00;101561.53;1036254;28;20792;-76
2022/01/02 02:17:56;;;;;;;11.52;7.15;;;;;;;9.60;100.00;101566.03;1038734;28;20280;-77
2022/01/02 02:18:28;;;;;;;9.80;7.47;;;;;;;9.59;100.00;101554.59;1038177;28;20280;-76
2022/01/02 02:19:00;;;;;;;12.15;8.27;;;;;;;9.62;100.00;101563.19;1039679;28;20292;-76
2022/01/02 02:19:31;;;;;;;10.20;7.10;;;;;;;9.62;100.00;101556.03;1039107;28;20632;-76
2022/01/02 02:20:24;;;;;;;11.07;7.43;;;;;;;9.64;100.00;101553.19;1038505;28;20489;-77
2022/01/02 02:20:56;;;;;;;11.43;6.78;;;;;;;9.68;100.00;101551.78;1035502;28;20285;-77
2022/01/02 02:21:34;;;;;;;15.40;7.03;;;;;;;9.69;100.00;101554.25;1034410;28;20284;-77
2022/01/02 02:22:08;;;;;;;14.00;7.63;;;;;;;9.71;100.00;101551.38;1035107;28;20773;-77
2022/01/02 02:22:41;;;;;;;21.63;7.35;;;;;;;9.68;100.00;101551.78;1032532;28;20369;-77
2022/01/02 02:23:14;;;;;;;15.38;6.63;;;;;;;9.69;100.00;101551.59;1037063;28;20308;-77
2022/01/02 02:23:46;;;;;;;9.38;7.28;;;;;;;9.68;100.00;101547.28;1035537;28;20299;-76
2022/01/02 02:24:17;;;;;;;9.50;6.40;;;;;;;9.67;100.00;101545.63;1031491;28;20705;-77
2022/01/02 02:24:49;;;;;;;15.35;6.93;;;;;;;9.67;100.00;101550.13;1035195;28;20277;-77
2022/01/02 02:25:22;;;;;;;11.82;7.70;;;;;;;9.69;100.00;101548.09;1035576;28;20790;-76
2022/01/02 02:25:54;;;;;;;12.13;7.03;;;;;;;9.67;100.00;101544.81;1035975;28;20277;-76
2022/01/02 02:26:25;;;;;;;10.88;7.55;;;;;;;9.66;100.00;101543.16;1038254;28;20287;-76
2022/01/02 02:26:57;;;;;;;18.70;7.22;;;;;;;9.65;100.00;101541.53;1037906;28;20280;-76
2022/01/02 02:27:28;;;;;;;19.15;7.50;;;;;;;9.65;100.00;101544.19;1035841;28;20419;-76
2022/01/02 02:28:11;;;;;;;9.05;6.63;;;;;;;9.63;100.00;101538.25;1039299;28;20284;-76
2022/01/02 02:28:42;;;;;;;10.30;6.68;;;;;;;9.63;100.00;101536.41;1039146;28;20288;-76
2022/01/02 02:29:14;;;;;;;14.57;6.55;;;;;;;9.66;100.00;101533.34;1039257;28;20292;-76
2022/01/02 02:29:46;;;;;;;9.20;6.72;;;;;;;9.64;100.00;101534.56;1039469;28;20284;-76
2022/01/02 02:30:17;;;;;;;12.75;7.10;;;;;;;9.62;100.00;101528.63;1039057;28;20283;-76
2022/01/02 02:30:49;;;;;;;10.05;7.03;;;;;;;9.63;100.00;101528.41;1039144;28;20280;-76
2022/01/02 02:31:21;;;;;;;14.10;6.80;;;;;;;9.64;100.00;101531.91;1035359;28;20315;-77
2022/01/02 02:31:54;;;;;;;13.23;7.18;;;;;;;9.64;100.00;101529.25;1034862;28;20740;-76
2022/01/02 02:32:26;;;;;;;15.27;7.53;;;;;;;9.62;100.00;101531.28;1035103;28;20320;-76
2022/01/02 02:32:59;;;;;;;11.25;7.03;;;;;;;9.67;100.00;101526.19;1036141;28;20411;-76
2022/01/02 02:33:31;;;;;;;15.00;6.75;;;;;;;9.67;100.00;101531.50;1035365;28;20276;-76
2022/01/02 02:34:02;;;;;;;15.90;6.50;;;;;;;9.70;100.00;101533.78;1035252;28;20284;-76
2022/01/02 02:34:34;;;;;;;15.80;7.22;;;;;;;9.66;100.00;101524.56;1036128;28;20281;-77
2022/01/02 02:35:06;;;;;;;14.07;7.30;;;;;;;9.68;100.00;101520.69;1039512;28;20652;-77
2022/01/02 02:35:40;;;;;;;17.80;7.00;;;;;;;9.72;100.00;101515.78;1038540;28;20724;-77
2022/01/02 02:36:11;;;;;;;9.77;6.97;;;;;;;9.72;100.00;101529.09;1035218;28;20280;-77
2022/01/02 02:36:43;;;;;;;14.68;7.22;;;;;;;9.69;100.00;101526.81;1035362;28;20283;-77
2022/01/02 02:37:14;;;;;;;10.98;6.85;;;;;;;9.68;100.00;101530.50;1035938;28;20626;-77
2022/01/02 02:37:46;;;;;;;14.50;7.40;;;;;;;9.70;100.00;101534.59;1035934;28;20276;-77
2022/01/02 02:38:18;;;;;;;15.07;7.45;;;;;;;9.70;100.00;101526.63;1039600;28;20655;-76